sensor_id;sensor_type;location;lat;lon;timestamp;temperature;humidity
2002;DHT22;1003;48.002;7.788;2024-01-11T00:00:49;-6.30;99.90
2002;DHT22;1003;48.002;7.788;2024-01-11T00:03:16;-6.40;99.90
2002;DHT22;1003;48.002;7.788;2024-01-11T00:05:44;-6.40;99.90
2002;DHT22;1003;48.002;7.788;2024-01-11T00:08:11;-6.40;99.90
2002;DHT22;1003;48.002;7.788;2024-01-11T00:10:38;-6.50;99.90
2002;DHT22;1003;48.002;7.788;2024-01-11T00:13:05;-6.50;99.90
2002;DHT22;1003;48.002;7.788;2024-01-11T00:15:34;-6.40;99.90
2002;DHT22;1003;48.002;7.788;2024-01-11T00:18:01;-6.50;99.90
2002;DHT22;1003;48.002;7.788;2024-01-11T00:20:29;-6.40;99.90
2002;DHT22;1003;48.002;7.788;2024-01-11T00:22:55;-6.50;99.90
2002;DHT22;1003;48.002;7.788;2024-01-11T00:25:22;-6.60;99.90
2002;DHT22;1003;48.002;7.788;2024-01-11T00:27:49;-6.70;99.90
2002;DHT22;1003;48.002;7.788;2024-01-11T00:30:16;-6.70;99.90
2002;DHT22;1003;48.002;7.788;2024-01-11T00:32:45;-6.80;99.90
2002;DHT22;1003;48.002;7.788;2024-01-11T00:35:12;-6.90;99.90
2002;DHT22;1003;48.002;7.788;2024-01-11T00:37:39;-7.00;99.90
2002;DHT22;1003;48.002;7.788;2024-01-11T00:40:07;-7.00;99.90
2002;DHT22;1003;48.002;7.788;2024-01-11T00:42:35;-7.00;99.90
2002;DHT22;1003;48.002;7.788;2024-01-11T00:45:02;-7.00;99.90
2002;DHT22;1003;48.002;7.788;2024-01-11T00:47:29;-7.00;99.90
2002;DHT22;1003;48.002;7.788;2024-01-11T00:49:57;-7.00;99.90
2002;DHT22;1003;48.002;7.788;2024-01-11T00:52:24;-7.00;99.90
2002;DHT22;1003;48.002;7.788;2024-01-11T00:54:51;-7.00;99.90
2002;DHT22;1003;48.002;7.788;2024-01-11T00:57:18;-7.00;99.90
2002;DHT22;1003;48.002;7.788;2024-01-11T00:59:44;-6.90;99.90
2002;DHT22;1003;48.002;7.788;2024-01-11T01:02:11;-6.80;99.90
2002;DHT22;1003;48.002;7.788;2024-01-11T01:04:38;-6.90;99.90
2002;DHT22;1003;48.002;7.788;2024-01-11T01:07:06;-6.90;99.90
2002;DHT22;1003;48.002;7.788;2024-01-11T01:09:33;-7.00;99.90
2002;DHT22;1003;48.002;7.788;2024-01-11T01:12:00;-6.90;99.90
2002;DHT22;1003;48.002;7.788;2024-01-11T01:14:27;-6.90;99.90
2002;DHT22;1003;48.002;7.788;2024-01-11T01:16:54;-6.80;99.90
2002;DHT22;1003;48.002;7.788;2024-01-11T01:19:21;-6.90;99.90
2002;DHT22;1003;48.002;7.788;2024-01-11T01:21:48;-6.90;99.90
2002;DHT22;1003;48.002;7.788;2024-01-11T01:24:16;-6.90;99.90
2002;DHT22;1003;48.002;7.788;2024-01-11T01:26:43;-6.90;99.90
2002;DHT22;1003;48.002;7.788;2024-01-11T01:29:10;-6.80;99.90
2002;DHT22;1003;48.002;7.788;2024-01-11T01:31:37;-6.80;99.90
2002;DHT22;1003;48.002;7.788;2024-01-11T01:34:04;-6.80;99.90
2002;DHT22;1003;48.002;7.788;2024-01-11T01:36:31;-6.70;99.90
2002;DHT22;1003;48.002;7.788;2024-01-11T01:38:58;-6.70;99.90
2002;DHT22;1003;48.002;7.788;2024-01-11T01:41:26;-6.70;99.90
2002;DHT22;1003;48.002;7.788;2024-01-11T01:43:53;-6.60;99.90
2002;DHT22;1003;48.002;7.788;2024-01-11T01:46:23;-6.70;99.90
2002;DHT22;1003;48.002;7.788;2024-01-11T01:48:52;-6.60;99.90
2002;DHT22;1003;48.002;7.788;2024-01-11T01:51:21;-6.70;99.90
2002;DHT22;1003;48.002;7.788;2024-01-11T01:53:51;-6.70;99.90
2002;DHT22;1003;48.002;7.788;2024-01-11T01:56:20;-6.80;99.90
2002;DHT22;1003;48.002;7.788;2024-01-11T01:58:51;-6.80;99.90
2002;DHT22;1003;48.002;7.788;2024-01-11T02:01:21;-6.70;99.90
2002;DHT22;1003;48.002;7.788;2024-01-11T02:03:50;-6.80;99.90
2002;DHT22;1003;48.002;7.788;2024-01-11T02:06:22;-6.80;99.90
2002;DHT22;1003;48.002;7.788;2024-01-11T02:08:52;-6.80;99.90
2002;DHT22;1003;48.002;7.788;2024-01-11T02:11:28;-6.70;99.90
2002;DHT22;1003;48.002;7.788;2024-01-11T02:13:56;-6.60;99.90
2002;DHT22;1003;48.002;7.788;2024-01-11T02:16:24;-6.70;99.90
2002;DHT22;1003;48.002;7.788;2024-01-11T02:18:51;-6.70;99.90
2002;DHT22;1003;48.002;7.788;2024-01-11T02:21:18;-6.70;99.90
2002;DHT22;1003;48.002;7.788;2024-01-11T02:23:53;-6.90;99.90
2002;DHT22;1003;48.002;7.788;2024-01-11T02:26:29;-6.90;99.90
2002;DHT22;1003;48.002;7.788;2024-01-11T02:28:56;-7.10;99.90
2002;DHT22;1003;48.002;7.788;2024-01-11T02:31:24;-7.20;99.90
2002;DHT22;1003;48.002;7.788;2024-01-11T02:33:52;-7.20;99.90
2002;DHT22;1003;48.002;7.788;2024-01-11T02:36:20;-7.20;99.90
2002;DHT22;1003;48.002;7.788;2024-01-11T02:38:49;-7.30;99.90
2002;DHT22;1003;48.002;7.788;2024-01-11T02:41:20;-7.20;99.90
2002;DHT22;1003;48.002;7.788;2024-01-11T02:43:49;-7.30;99.90
2002;DHT22;1003;48.002;7.788;2024-01-11T02:46:17;-7.30;99.90
2002;DHT22;1003;48.002;7.788;2024-01-11T02:48:44;-7.30;99.90
2002;DHT22;1003;48.002;7.788;2024-01-11T02:51:11;-7.30;99.90
2002;DHT22;1003;48.002;7.788;2024-01-11T02:53:38;-7.30;99.90
2002;DHT22;1003;48.002;7.788;2024-01-11T02:56:05;-7.30;99.90
2002;DHT22;1003;48.002;7.788;2024-01-11T02:58:33;-7.20;99.90
2002;DHT22;1003;48.002;7.788;2024-01-11T03:01:00;-7.20;99.90
2002;DHT22;1003;48.002;7.788;2024-01-11T03:03:27;-7.20;99.90
2002;DHT22;1003;48.002;7.788;2024-01-11T03:05:54;-7.20;99.90
2002;DHT22;1003;48.002;7.788;2024-01-11T03:08:21;-7.20;99.90
2002;DHT22;1003;48.002;7.788;2024-01-11T03:10:48;-7.20;99.90
2002;DHT22;1003;48.002;7.788;2024-01-11T03:13:14;-7.20;99.90
2002;DHT22;1003;48.002;7.788;2024-01-11T03:15:43;-7.20;99.90
2002;DHT22;1003;48.002;7.788;2024-01-11T03:18:10;-7.30;99.90
2002;DHT22;1003;48.002;7.788;2024-01-11T03:20:36;-7.20;99.90
2002;DHT22;1003;48.002;7.788;2024-01-11T03:23:03;-7.30;99.90
2002;DHT22;1003;48.002;7.788;2024-01-11T03:25:31;-7.30;99.90
2002;DHT22;1003;48.002;7.788;2024-01-11T03:27:58;-7.20;99.90
2002;DHT22;1003;48.002;7.788;2024-01-11T03:30:25;-7.20;99.90
2002;DHT22;1003;48.002;7.788;2024-01-11T03:32:53;-7.20;99.90
2002;DHT22;1003;48.002;7.788;2024-01-11T03:35:20;-7.30;99.90
2002;DHT22;1003;48.002;7.788;2024-01-11T03:37:47;-7.20;99.90
2002;DHT22;1003;48.002;7.788;2024-01-11T03:40:14;-7.30;99.90
2002;DHT22;1003;48.002;7.788;2024-01-11T03:42:42;-7.40;99.90
2002;DHT22;1003;48.002;7.788;2024-01-11T03:45:09;-7.40;99.90
2002;DHT22;1003;48.002;7.788;2024-01-11T03:47:36;-7.40;99.90
2002;DHT22;1003;48.002;7.788;2024-01-11T03:50:05;-7.50;99.90
2002;DHT22;1003;48.002;7.788;2024-01-11T03:52:32;-7.60;99.90
2002;DHT22;1003;48.002;7.788;2024-01-11T03:54:59;-7.60;99.90
2002;DHT22;1003;48.002;7.788;2024-01-11T03:57:26;-7.60;99.90
2002;DHT22;1003;48.002;7.788;2024-01-11T03:59:53;-7.60;99.90
2002;DHT22;1003;48.002;7.788;2024-01-11T04:02:20;-7.50;99.90
2002;DHT22;1003;48.002;7.788;2024-01-11T04:04:47;-7.50;99.90
2002;DHT22;1003;48.002;7.788;2024-01-11T04:07:15;-7.60;99.90
2002;DHT22;1003;48.002;7.788;2024-01-11T04:09:42;-7.60;99.90
2002;DHT22;1003;48.002;7.788;2024-01-11T04:12:09;-7.60;99.90
2002;DHT22;1003;48.002;7.788;2024-01-11T04:14:38;-7.50;99.90
2002;DHT22;1003;48.002;7.788;2024-01-11T04:17:06;-7.50;99.90
2002;DHT22;1003;48.002;7.788;2024-01-11T04:19:33;-7.60;99.90
2002;DHT22;1003;48.002;7.788;2024-01-11T04:22:00;-7.60;99.90
2002;DHT22;1003;48.002;7.788;2024-01-11T04:24:28;-7.60;99.90
2002;DHT22;1003;48.002;7.788;2024-01-11T04:26:55;-7.60;99.90
2002;DHT22;1003;48.002;7.788;2024-01-11T04:29:22;-7.70;99.90
2002;DHT22;1003;48.002;7.788;2024-01-11T04:31:49;-7.60;99.90
2002;DHT22;1003;48.002;7.788;2024-01-11T04:34:16;-7.50;99.90
2002;DHT22;1003;48.002;7.788;2024-01-11T04:36:43;-7.50;99.90
2002;DHT22;1003;48.002;7.788;2024-01-11T04:39:11;-7.60;99.90
2002;DHT22;1003;48.002;7.788;2024-01-11T04:41:39;-7.50;99.90
2002;DHT22;1003;48.002;7.788;2024-01-11T04:44:06;-7.50;99.90
2002;DHT22;1003;48.002;7.788;2024-01-11T04:46:33;-7.60;99.90
2002;DHT22;1003;48.002;7.788;2024-01-11T04:49:01;-7.60;99.90
2002;DHT22;1003;48.002;7.788;2024-01-11T04:51:28;-7.60;99.90
2002;DHT22;1003;48.002;7.788;2024-01-11T04:53:55;-7.70;99.90
2002;DHT22;1003;48.002;7.788;2024-01-11T04:56:22;-7.80;99.90
2002;DHT22;1003;48.002;7.788;2024-01-11T04:58:51;-7.90;99.90
2002;DHT22;1003;48.002;7.788;2024-01-11T05:01:18;-7.80;99.90
2002;DHT22;1003;48.002;7.788;2024-01-11T05:03:46;-8.00;99.90
2002;DHT22;1003;48.002;7.788;2024-01-11T05:06:16;-7.90;99.90
2002;DHT22;1003;48.002;7.788;2024-01-11T05:08:44;-8.00;99.90
2002;DHT22;1003;48.002;7.788;2024-01-11T05:11:15;-8.00;99.90
2002;DHT22;1003;48.002;7.788;2024-01-11T05:13:43;-8.10;99.90
2002;DHT22;1003;48.002;7.788;2024-01-11T05:16:19;-8.00;99.90
2002;DHT22;1003;48.002;7.788;2024-01-11T05:18:46;-7.90;99.90
2002;DHT22;1003;48.002;7.788;2024-01-11T05:21:13;-8.00;99.90
2002;DHT22;1003;48.002;7.788;2024-01-11T05:23:41;-8.00;99.90
2002;DHT22;1003;48.002;7.788;2024-01-11T05:26:08;-8.00;99.90
2002;DHT22;1003;48.002;7.788;2024-01-11T05:28:35;-7.90;99.90
2002;DHT22;1003;48.002;7.788;2024-01-11T05:31:05;-7.80;99.90
2002;DHT22;1003;48.002;7.788;2024-01-11T05:33:33;-7.80;99.90
2002;DHT22;1003;48.002;7.788;2024-01-11T05:36:00;-7.80;99.90
2002;DHT22;1003;48.002;7.788;2024-01-11T05:38:28;-7.80;99.90
2002;DHT22;1003;48.002;7.788;2024-01-11T05:40:55;-7.90;99.90
2002;DHT22;1003;48.002;7.788;2024-01-11T05:43:22;-7.90;99.90
2002;DHT22;1003;48.002;7.788;2024-01-11T05:45:49;-7.90;99.90
2002;DHT22;1003;48.002;7.788;2024-01-11T05:48:17;-7.90;99.90
2002;DHT22;1003;48.002;7.788;2024-01-11T05:50:45;-7.90;99.90
2002;DHT22;1003;48.002;7.788;2024-01-11T05:53:13;-8.00;99.90
2002;DHT22;1003;48.002;7.788;2024-01-11T05:55:40;-8.00;99.90
2002;DHT22;1003;48.002;7.788;2024-01-11T05:58:07;-7.90;99.90
2002;DHT22;1003;48.002;7.788;2024-01-11T06:00:34;-7.90;99.90
2002;DHT22;1003;48.002;7.788;2024-01-11T06:03:01;-8.00;99.90
2002;DHT22;1003;48.002;7.788;2024-01-11T06:05:28;-7.90;99.90
2002;DHT22;1003;48.002;7.788;2024-01-11T06:07:56;-7.90;99.90
2002;DHT22;1003;48.002;7.788;2024-01-11T06:10:23;-8.00;99.90
2002;DHT22;1003;48.002;7.788;2024-01-11T06:12:50;-8.00;99.90
2002;DHT22;1003;48.002;7.788;2024-01-11T06:15:17;-8.00;99.90
2002;DHT22;1003;48.002;7.788;2024-01-11T06:17:45;-8.00;99.90
2002;DHT22;1003;48.002;7.788;2024-01-11T06:20:12;-8.00;99.90
2002;DHT22;1003;48.002;7.788;2024-01-11T06:22:39;-7.90;99.90
2002;DHT22;1003;48.002;7.788;2024-01-11T06:25:08;-7.90;99.90
2002;DHT22;1003;48.002;7.788;2024-01-11T06:27:35;-7.90;99.90
2002;DHT22;1003;48.002;7.788;2024-01-11T06:30:02;-7.90;99.90
2002;DHT22;1003;48.002;7.788;2024-01-11T06:32:30;-8.00;99.90
2002;DHT22;1003;48.002;7.788;2024-01-11T06:34:57;-8.00;99.90
2002;DHT22;1003;48.002;7.788;2024-01-11T06:37:24;-7.90;99.90
2002;DHT22;1003;48.002;7.788;2024-01-11T06:39:51;-7.90;99.90
2002;DHT22;1003;48.002;7.788;2024-01-11T06:42:19;-8.00;99.90
2002;DHT22;1003;48.002;7.788;2024-01-11T06:44:46;-8.00;99.90
2002;DHT22;1003;48.002;7.788;2024-01-11T06:47:13;-7.90;99.90
2002;DHT22;1003;48.002;7.788;2024-01-11T06:49:41;-8.10;99.90
2002;DHT22;1003;48.002;7.788;2024-01-11T06:52:08;-8.20;99.90
2002;DHT22;1003;48.002;7.788;2024-01-11T06:54:35;-8.10;99.90
2002;DHT22;1003;48.002;7.788;2024-01-11T06:57:02;-8.10;99.90
2002;DHT22;1003;48.002;7.788;2024-01-11T06:59:30;-8.10;99.90
2002;DHT22;1003;48.002;7.788;2024-01-11T07:01:57;-8.10;99.90
2002;DHT22;1003;48.002;7.788;2024-01-11T07:04:24;-8.20;99.90
2002;DHT22;1003;48.002;7.788;2024-01-11T07:06:51;-8.30;99.90
2002;DHT22;1003;48.002;7.788;2024-01-11T07:09:18;-8.00;99.90
2002;DHT22;1003;48.002;7.788;2024-01-11T07:11:45;-8.00;99.90
2002;DHT22;1003;48.002;7.788;2024-01-11T07:14:12;-8.10;99.90
2002;DHT22;1003;48.002;7.788;2024-01-11T07:16:41;-8.10;99.90
2002;DHT22;1003;48.002;7.788;2024-01-11T07:19:07;-7.90;99.90
2002;DHT22;1003;48.002;7.788;2024-01-11T07:21:35;-7.70;99.90
2002;DHT22;1003;48.002;7.788;2024-01-11T07:24:02;-7.90;99.90
2002;DHT22;1003;48.002;7.788;2024-01-11T07:26:29;-7.80;99.90
2002;DHT22;1003;48.002;7.788;2024-01-11T07:28:56;-8.00;99.90
2002;DHT22;1003;48.002;7.788;2024-01-11T07:31:23;-8.00;99.90
2002;DHT22;1003;48.002;7.788;2024-01-11T07:33:52;-7.90;99.90
2002;DHT22;1003;48.002;7.788;2024-01-11T07:36:18;-7.80;99.90
2002;DHT22;1003;48.002;7.788;2024-01-11T07:38:45;-7.70;99.90
2002;DHT22;1003;48.002;7.788;2024-01-11T07:41:12;-7.70;99.90
2002;DHT22;1003;48.002;7.788;2024-01-11T07:43:40;-7.70;99.90
2002;DHT22;1003;48.002;7.788;2024-01-11T07:46:07;-7.70;99.90
2002;DHT22;1003;48.002;7.788;2024-01-11T07:48:34;-7.60;99.90
2002;DHT22;1003;48.002;7.788;2024-01-11T07:51:03;-7.50;99.90
2002;DHT22;1003;48.002;7.788;2024-01-11T07:53:30;-7.50;99.90
2002;DHT22;1003;48.002;7.788;2024-01-11T07:55:57;-7.60;99.90
2002;DHT22;1003;48.002;7.788;2024-01-11T07:58:24;-7.60;99.90
2002;DHT22;1003;48.002;7.788;2024-01-11T08:00:51;-7.50;99.90
2002;DHT22;1003;48.002;7.788;2024-01-11T08:03:19;-7.50;99.90
2002;DHT22;1003;48.002;7.788;2024-01-11T08:05:46;-7.40;99.90
2002;DHT22;1003;48.002;7.788;2024-01-11T08:08:17;-7.40;99.90
2002;DHT22;1003;48.002;7.788;2024-01-11T08:10:44;-7.30;99.90
2002;DHT22;1003;48.002;7.788;2024-01-11T08:13:11;-7.40;99.90
2002;DHT22;1003;48.002;7.788;2024-01-11T08:15:38;-7.40;99.90
2002;DHT22;1003;48.002;7.788;2024-01-11T08:18:05;-7.40;99.90
2002;DHT22;1003;48.002;7.788;2024-01-11T08:20:33;-7.30;99.90
2002;DHT22;1003;48.002;7.788;2024-01-11T08:23:00;-7.20;99.90
2002;DHT22;1003;48.002;7.788;2024-01-11T08:25:28;-7.20;99.90
2002;DHT22;1003;48.002;7.788;2024-01-11T08:27:55;-7.20;99.90
2002;DHT22;1003;48.002;7.788;2024-01-11T08:30:23;-7.00;99.90
2002;DHT22;1003;48.002;7.788;2024-01-11T08:32:49;-7.00;99.90
2002;DHT22;1003;48.002;7.788;2024-01-11T08:35:17;-6.90;99.90
2002;DHT22;1003;48.002;7.788;2024-01-11T08:37:43;-6.70;99.90
2002;DHT22;1003;48.002;7.788;2024-01-11T08:40:11;-6.60;99.90
2002;DHT22;1003;48.002;7.788;2024-01-11T08:42:39;-6.60;99.90
2002;DHT22;1003;48.002;7.788;2024-01-11T08:45:08;-6.50;99.90
2002;DHT22;1003;48.002;7.788;2024-01-11T08:47:36;-6.60;99.90
2002;DHT22;1003;48.002;7.788;2024-01-11T08:50:04;-6.50;99.90
2002;DHT22;1003;48.002;7.788;2024-01-11T08:52:32;-6.30;99.90
2002;DHT22;1003;48.002;7.788;2024-01-11T08:54:59;-6.30;99.90
2002;DHT22;1003;48.002;7.788;2024-01-11T08:57:27;-6.30;99.90
2002;DHT22;1003;48.002;7.788;2024-01-11T08:59:55;-6.10;99.90
2002;DHT22;1003;48.002;7.788;2024-01-11T09:02:22;-6.00;99.90
2002;DHT22;1003;48.002;7.788;2024-01-11T09:04:49;-5.80;99.90
2002;DHT22;1003;48.002;7.788;2024-01-11T09:07:16;-5.80;99.90
2002;DHT22;1003;48.002;7.788;2024-01-11T09:09:43;-5.70;99.90
2002;DHT22;1003;48.002;7.788;2024-01-11T09:12:11;-5.70;99.90
2002;DHT22;1003;48.002;7.788;2024-01-11T09:14:38;-5.70;99.90
2002;DHT22;1003;48.002;7.788;2024-01-11T09:17:07;-5.70;99.90
2002;DHT22;1003;48.002;7.788;2024-01-11T09:19:34;-5.50;99.90
2002;DHT22;1003;48.002;7.788;2024-01-11T09:22:03;-5.40;99.90
2002;DHT22;1003;48.002;7.788;2024-01-11T09:24:30;-5.30;99.90
2002;DHT22;1003;48.002;7.788;2024-01-11T09:26:57;-5.20;99.90
2002;DHT22;1003;48.002;7.788;2024-01-11T09:29:24;-5.00;99.90
2002;DHT22;1003;48.002;7.788;2024-01-11T09:31:51;-4.90;99.90
2002;DHT22;1003;48.002;7.788;2024-01-11T09:34:19;-4.90;99.90
2002;DHT22;1003;48.002;7.788;2024-01-11T09:36:46;-4.80;99.90
2002;DHT22;1003;48.002;7.788;2024-01-11T09:39:13;-4.70;99.90
2002;DHT22;1003;48.002;7.788;2024-01-11T09:41:43;-4.70;99.90
2002;DHT22;1003;48.002;7.788;2024-01-11T09:44:17;-4.60;99.90
2002;DHT22;1003;48.002;7.788;2024-01-11T09:46:45;-4.60;99.90
2002;DHT22;1003;48.002;7.788;2024-01-11T09:49:13;-4.60;99.90
2002;DHT22;1003;48.002;7.788;2024-01-11T09:51:46;-4.50;99.90
2002;DHT22;1003;48.002;7.788;2024-01-11T09:54:15;-4.40;99.90
2002;DHT22;1003;48.002;7.788;2024-01-11T09:56:45;-4.20;99.90
2002;DHT22;1003;48.002;7.788;2024-01-11T09:59:12;-4.20;99.90
2002;DHT22;1003;48.002;7.788;2024-01-11T10:01:39;-4.10;99.90
2002;DHT22;1003;48.002;7.788;2024-01-11T10:04:07;-4.00;99.90
2002;DHT22;1003;48.002;7.788;2024-01-11T10:06:36;-4.00;99.90
2002;DHT22;1003;48.002;7.788;2024-01-11T10:09:06;-3.90;99.90
2002;DHT22;1003;48.002;7.788;2024-01-11T10:11:33;-3.70;99.90
2002;DHT22;1003;48.002;7.788;2024-01-11T10:14:01;-3.70;99.90
2002;DHT22;1003;48.002;7.788;2024-01-11T10:19:04;-3.40;99.90
2002;DHT22;1003;48.002;7.788;2024-01-11T10:21:31;-3.50;99.90
2002;DHT22;1003;48.002;7.788;2024-01-11T10:31:58;-3.30;99.90
2002;DHT22;1003;48.002;7.788;2024-01-11T10:34:26;-3.30;99.90
2002;DHT22;1003;48.002;7.788;2024-01-11T10:39:30;-3.20;99.90
2002;DHT22;1003;48.002;7.788;2024-01-11T10:42:04;-3.20;99.90
2002;DHT22;1003;48.002;7.788;2024-01-11T10:44:34;-3.20;99.90
2002;DHT22;1003;48.002;7.788;2024-01-11T10:47:04;-3.00;99.90
2002;DHT22;1003;48.002;7.788;2024-01-11T10:49:39;-2.90;99.90
2002;DHT22;1003;48.002;7.788;2024-01-11T10:54:54;-3.00;99.90
2002;DHT22;1003;48.002;7.788;2024-01-11T10:57:25;-2.90;99.90
2002;DHT22;1003;48.002;7.788;2024-01-11T10:59:54;-2.90;99.90
2002;DHT22;1003;48.002;7.788;2024-01-11T11:02:24;-2.80;99.90
2002;DHT22;1003;48.002;7.788;2024-01-11T11:04:53;-2.90;99.90
2002;DHT22;1003;48.002;7.788;2024-01-11T11:07:33;-3.00;99.90
2002;DHT22;1003;48.002;7.788;2024-01-11T11:10:02;-2.90;99.90
2002;DHT22;1003;48.002;7.788;2024-01-11T11:12:33;-2.90;99.90
2002;DHT22;1003;48.002;7.788;2024-01-11T11:15:02;-2.80;99.90
2002;DHT22;1003;48.002;7.788;2024-01-11T11:17:31;-2.80;99.90
2002;DHT22;1003;48.002;7.788;2024-01-11T11:20:00;-2.80;99.90
2002;DHT22;1003;48.002;7.788;2024-01-11T11:22:34;-3.00;99.90
2002;DHT22;1003;48.002;7.788;2024-01-11T11:25:06;-2.90;99.90
2002;DHT22;1003;48.002;7.788;2024-01-11T11:27:35;-2.80;99.90
2002;DHT22;1003;48.002;7.788;2024-01-11T11:30:03;-2.70;99.90
2002;DHT22;1003;48.002;7.788;2024-01-11T11:32:43;-2.70;99.90
2002;DHT22;1003;48.002;7.788;2024-01-11T11:35:10;-2.70;99.90
2002;DHT22;1003;48.002;7.788;2024-01-11T11:37:37;-2.70;99.90
2002;DHT22;1003;48.002;7.788;2024-01-11T11:40:05;-2.60;99.90
2002;DHT22;1003;48.002;7.788;2024-01-11T11:42:34;-2.60;99.90
2002;DHT22;1003;48.002;7.788;2024-01-11T11:45:02;-2.40;99.90
2002;DHT22;1003;48.002;7.788;2024-01-11T11:47:34;-2.40;99.90
2002;DHT22;1003;48.002;7.788;2024-01-11T11:50:08;-2.40;99.90
2002;DHT22;1003;48.002;7.788;2024-01-11T11:52:37;-2.30;99.90
2002;DHT22;1003;48.002;7.788;2024-01-11T11:55:08;-2.10;99.90
2002;DHT22;1003;48.002;7.788;2024-01-11T11:57:35;-2.20;99.90
2002;DHT22;1003;48.002;7.788;2024-01-11T12:00:03;-2.10;99.90
2002;DHT22;1003;48.002;7.788;2024-01-11T12:02:32;-1.80;99.90
2002;DHT22;1003;48.002;7.788;2024-01-11T12:05:01;-1.90;99.90
2002;DHT22;1003;48.002;7.788;2024-01-11T12:07:31;-1.90;99.90
2002;DHT22;1003;48.002;7.788;2024-01-11T12:09:58;-2.00;99.90
2002;DHT22;1003;48.002;7.788;2024-01-11T12:12:25;-1.80;99.90
2002;DHT22;1003;48.002;7.788;2024-01-11T12:14:53;-2.00;99.90
2002;DHT22;1003;48.002;7.788;2024-01-11T12:17:20;-2.00;99.90
2002;DHT22;1003;48.002;7.788;2024-01-11T12:19:47;-2.10;99.90
2002;DHT22;1003;48.002;7.788;2024-01-11T12:22:14;-2.20;99.90
2002;DHT22;1003;48.002;7.788;2024-01-11T12:24:44;-2.10;99.90
2002;DHT22;1003;48.002;7.788;2024-01-11T12:27:12;-1.90;99.90
2002;DHT22;1003;48.002;7.788;2024-01-11T12:29:40;-2.00;99.90
2002;DHT22;1003;48.002;7.788;2024-01-11T12:32:07;-1.90;99.90
2002;DHT22;1003;48.002;7.788;2024-01-11T12:34:36;-2.00;99.90
2002;DHT22;1003;48.002;7.788;2024-01-11T12:37:05;-1.90;99.90
2002;DHT22;1003;48.002;7.788;2024-01-11T12:39:37;-1.80;99.90
2002;DHT22;1003;48.002;7.788;2024-01-11T12:42:06;-1.60;99.90
2002;DHT22;1003;48.002;7.788;2024-01-11T12:44:36;-1.30;99.90
2002;DHT22;1003;48.002;7.788;2024-01-11T12:47:05;-1.50;99.90
2002;DHT22;1003;48.002;7.788;2024-01-11T12:49:34;-1.40;99.90
2002;DHT22;1003;48.002;7.788;2024-01-11T12:57:29;-1.20;99.90
2002;DHT22;1003;48.002;7.788;2024-01-11T13:00:09;-1.10;99.90
2002;DHT22;1003;48.002;7.788;2024-01-11T13:06:17;-1.00;99.90
2002;DHT22;1003;48.002;7.788;2024-01-11T13:08:59;-1.20;99.90
2002;DHT22;1003;48.002;7.788;2024-01-11T13:14:22;-1.20;99.90
2002;DHT22;1003;48.002;7.788;2024-01-11T13:17:09;-1.30;99.90
2002;DHT22;1003;48.002;7.788;2024-01-11T13:19:55;-1.20;99.90
2002;DHT22;1003;48.002;7.788;2024-01-11T13:22:32;-1.20;99.90
2002;DHT22;1003;48.002;7.788;2024-01-11T13:25:15;-1.30;99.90
2002;DHT22;1003;48.002;7.788;2024-01-11T13:27:50;-1.30;99.90
2002;DHT22;1003;48.002;7.788;2024-01-11T13:30:25;-1.20;99.90
2002;DHT22;1003;48.002;7.788;2024-01-11T13:32:53;-1.10;99.90
2002;DHT22;1003;48.002;7.788;2024-01-11T13:35:20;-1.10;99.90
2002;DHT22;1003;48.002;7.788;2024-01-11T13:37:47;-1.30;99.90
2002;DHT22;1003;48.002;7.788;2024-01-11T13:40:15;-1.30;99.90
2002;DHT22;1003;48.002;7.788;2024-01-11T13:42:45;-1.40;99.90
2002;DHT22;1003;48.002;7.788;2024-01-11T13:45:12;-1.40;99.90
2002;DHT22;1003;48.002;7.788;2024-01-11T13:47:43;-1.50;99.90
2002;DHT22;1003;48.002;7.788;2024-01-11T13:50:11;-1.40;99.90
2002;DHT22;1003;48.002;7.788;2024-01-11T13:52:38;-1.50;99.90
2002;DHT22;1003;48.002;7.788;2024-01-11T13:55:07;-1.50;99.90
2002;DHT22;1003;48.002;7.788;2024-01-11T13:57:35;-1.50;99.90
2002;DHT22;1003;48.002;7.788;2024-01-11T14:00:04;-1.50;99.90
2002;DHT22;1003;48.002;7.788;2024-01-11T14:02:32;-1.50;99.90
2002;DHT22;1003;48.002;7.788;2024-01-11T14:05:01;-1.50;99.90
2002;DHT22;1003;48.002;7.788;2024-01-11T14:07:30;-1.40;99.90
2002;DHT22;1003;48.002;7.788;2024-01-11T14:09:56;-1.40;99.90
2002;DHT22;1003;48.002;7.788;2024-01-11T14:12:24;-1.40;99.90
2002;DHT22;1003;48.002;7.788;2024-01-11T14:14:51;-1.30;99.90
2002;DHT22;1003;48.002;7.788;2024-01-11T14:17:18;-1.30;99.90
2002;DHT22;1003;48.002;7.788;2024-01-11T14:19:46;-1.40;99.90
2002;DHT22;1003;48.002;7.788;2024-01-11T14:22:20;-1.40;99.90
2002;DHT22;1003;48.002;7.788;2024-01-11T14:24:48;-1.40;99.90
2002;DHT22;1003;48.002;7.788;2024-01-11T14:27:15;-1.10;99.90
2002;DHT22;1003;48.002;7.788;2024-01-11T14:29:42;-0.90;99.90
2002;DHT22;1003;48.002;7.788;2024-01-11T14:32:09;-0.80;99.90
2002;DHT22;1003;48.002;7.788;2024-01-11T14:34:36;-0.70;99.90
2002;DHT22;1003;48.002;7.788;2024-01-11T14:37:04;-0.60;99.90
2002;DHT22;1003;48.002;7.788;2024-01-11T14:39:33;-0.50;99.90
2002;DHT22;1003;48.002;7.788;2024-01-11T14:42:00;-0.50;99.90
2002;DHT22;1003;48.002;7.788;2024-01-11T14:44:27;-0.60;99.90
2002;DHT22;1003;48.002;7.788;2024-01-11T14:46:54;-0.80;99.90
2002;DHT22;1003;48.002;7.788;2024-01-11T14:49:21;-0.90;99.90
2002;DHT22;1003;48.002;7.788;2024-01-11T14:51:48;-0.80;99.90
2002;DHT22;1003;48.002;7.788;2024-01-11T14:54:15;-1.00;99.90
2002;DHT22;1003;48.002;7.788;2024-01-11T14:56:46;-1.10;99.90
2002;DHT22;1003;48.002;7.788;2024-01-11T14:59:13;-1.20;99.90
2002;DHT22;1003;48.002;7.788;2024-01-11T15:01:40;-1.30;99.90
2002;DHT22;1003;48.002;7.788;2024-01-11T15:04:08;-1.40;99.90
2002;DHT22;1003;48.002;7.788;2024-01-11T15:06:35;-1.50;99.90
2002;DHT22;1003;48.002;7.788;2024-01-11T15:09:03;-1.60;99.90
2002;DHT22;1003;48.002;7.788;2024-01-11T15:11:30;-1.70;99.90
2002;DHT22;1003;48.002;7.788;2024-01-11T15:14:02;-1.80;99.90
2002;DHT22;1003;48.002;7.788;2024-01-11T15:16:30;-1.80;99.90
2002;DHT22;1003;48.002;7.788;2024-01-11T15:18:57;-1.90;99.90
2002;DHT22;1003;48.002;7.788;2024-01-11T15:21:27;-2.00;99.90
2002;DHT22;1003;48.002;7.788;2024-01-11T15:23:54;-2.10;99.90
2002;DHT22;1003;48.002;7.788;2024-01-11T15:26:21;-2.10;99.90
2002;DHT22;1003;48.002;7.788;2024-01-11T15:28:48;-2.20;99.90
2002;DHT22;1003;48.002;7.788;2024-01-11T15:31:17;-2.20;99.90
2002;DHT22;1003;48.002;7.788;2024-01-11T15:33:44;-2.20;99.90
2002;DHT22;1003;48.002;7.788;2024-01-11T15:36:11;-2.30;99.90
2002;DHT22;1003;48.002;7.788;2024-01-11T15:38:38;-2.40;99.90
2002;DHT22;1003;48.002;7.788;2024-01-11T15:41:06;-2.50;99.90
2002;DHT22;1003;48.002;7.788;2024-01-11T15:43:32;-2.70;99.90
2002;DHT22;1003;48.002;7.788;2024-01-11T15:46:00;-2.80;99.90
2002;DHT22;1003;48.002;7.788;2024-01-11T15:48:28;-2.90;99.90
2002;DHT22;1003;48.002;7.788;2024-01-11T15:50:55;-3.00;99.90
2002;DHT22;1003;48.002;7.788;2024-01-11T15:53:23;-3.00;99.90
2002;DHT22;1003;48.002;7.788;2024-01-11T15:55:50;-3.10;99.90
2002;DHT22;1003;48.002;7.788;2024-01-11T15:58:17;-3.20;99.90
2002;DHT22;1003;48.002;7.788;2024-01-11T16:00:45;-3.20;99.90
2002;DHT22;1003;48.002;7.788;2024-01-11T16:03:12;-3.30;99.90
2002;DHT22;1003;48.002;7.788;2024-01-11T16:05:40;-3.20;99.90
2002;DHT22;1003;48.002;7.788;2024-01-11T16:08:08;-3.30;99.90
2002;DHT22;1003;48.002;7.788;2024-01-11T16:10:36;-3.40;99.90
2002;DHT22;1003;48.002;7.788;2024-01-11T16:13:03;-3.50;99.90
2002;DHT22;1003;48.002;7.788;2024-01-11T16:15:30;-3.50;99.90
2002;DHT22;1003;48.002;7.788;2024-01-11T16:17:57;-3.60;99.90
2002;DHT22;1003;48.002;7.788;2024-01-11T16:20:24;-3.60;99.90
2002;DHT22;1003;48.002;7.788;2024-01-11T16:22:52;-3.60;99.90
2002;DHT22;1003;48.002;7.788;2024-01-11T16:25:19;-3.60;99.90
2002;DHT22;1003;48.002;7.788;2024-01-11T16:27:46;-3.80;99.90
2002;DHT22;1003;48.002;7.788;2024-01-11T16:30:13;-3.80;99.90
2002;DHT22;1003;48.002;7.788;2024-01-11T16:32:41;-4.00;99.90
2002;DHT22;1003;48.002;7.788;2024-01-11T16:35:09;-4.00;99.90